Walkerburn, United Kingdom
Current Conditions -  °F | °C
As of 8:50 PM on Sunday 23 Nov 2014 (Local Time) from EGPH Reporting Station
Scattered Clouds Scattered Clouds  
Wind Chill:   Ceiling: Unl
Heat Index:   Visibility: 6mi
Dew Point:   Wind: 9mph
Humidity: 93%   Direction: 230°SW
Pressure: 30"   Gusts: NA
Location:  55.62°N, 3.01°W
Report Text: EGPH 232050Z 23008KT 9999 SCT038 04/03 Q1016
Loading
Personal Weather Stations






























Interactive Weather Map New forecast layout! Learn more

10-Day Weather Forecast

Advertisements
Track Severe Weather on mobile